Time;durP1;ratioP1;P1;durP2;ratioP2;P2;SDS_P1;SDS_P2;PMS_P1;PMS_P2;Temp;Humidity;BMP_temperature;BMP_pressure;BME280_temperature;BME280_humidity;BME280_pressure;Samples;Min_cycle;Max_cycle;Signal;HPM_P1;HPM_P2
2022/12/12 00:01:27;;;;;;;28.70;17.23;;;1.50;99.90;;;;;;5023060;28;20052;-77
2022/12/12 00:03:54;;;;;;;28.33;17.33;;;1.50;99.90;;;;;;5026748;28;20048;-77
2022/12/12 00:06:21;;;;;;;21.67;13.20;;;1.40;99.90;;;;;;5040910;28;20029;-77
2022/12/12 00:08:48;;;;;;;23.43;14.83;;;1.40;99.90;;;;;;5021538;28;20038;-77
2022/12/12 00:11:15;;;;;;;27.53;17.13;;;1.50;99.90;;;;;;5042783;28;20109;-77
2022/12/12 00:13:42;;;;;;;25.50;15.30;;;1.50;99.90;;;;;;5026493;28;20049;-77
2022/12/12 00:16:08;;;;;;;22.87;14.50;;;1.50;99.90;;;;;;5027285;28;20029;-77
2022/12/12 00:18:35;;;;;;;28.13;16.83;;;1.50;99.90;;;;;;5026388;28;20502;-77
2022/12/12 00:21:05;;;;;;;25.20;15.83;;;1.50;99.90;;;;;;5032535;28;20037;-76
2022/12/12 00:23:31;;;;;;;29.87;17.77;;;1.50;99.90;;;;;;5039041;28;20046;-77
2022/12/12 00:26:04;;;;;;;30.20;17.07;;;1.50;99.90;;;;;;5031107;28;20033;-77
2022/12/12 00:28:31;;;;;;;26.27;16.17;;;1.50;99.90;;;;;;5029367;28;20037;-77
2022/12/12 00:30:57;;;;;;;22.33;14.40;;;1.50;99.90;;;;;;5044797;28;20040;-77
2022/12/12 00:33:23;;;;;;;28.47;18.43;;;1.50;99.90;;;;;;5050885;28;20041;-77
2022/12/12 00:35:52;;;;;;;30.50;18.17;;;1.50;99.90;;;;;;5041340;28;20045;-77
2022/12/12 00:38:20;;;;;;;28.93;16.87;;;1.50;99.90;;;;;;5038273;28;20047;-77
2022/12/12 00:40:47;;;;;;;28.53;17.67;;;1.50;99.90;;;;;;5037789;28;20037;-77
2022/12/12 00:43:14;;;;;;;30.97;18.87;;;1.50;99.90;;;;;;5001770;28;20401;-77
2022/12/12 00:45:40;;;;;;;25.63;16.40;;;1.50;99.90;;;;;;5015255;28;20045;-77
2022/12/12 00:48:08;;;;;;;31.53;17.97;;;1.50;99.90;;;;;;5034064;28;20044;-77
2022/12/12 00:50:34;;;;;;;24.67;15.60;;;1.50;99.90;;;;;;5029416;28;20049;-77
2022/12/12 00:53:01;;;;;;;27.10;16.67;;;1.50;99.90;;;;;;5032893;28;20033;-77
2022/12/12 00:55:27;;;;;;;23.53;13.50;;;1.50;99.90;;;;;;5034526;28;20037;-76
2022/12/12 00:57:54;;;;;;;24.60;15.90;;;1.50;99.90;;;;;;5022107;28;20109;-77
2022/12/12 01:00:21;;;;;;;27.60;17.63;;;1.50;99.90;;;;;;5012497;28;20049;-77
2022/12/12 01:02:47;;;;;;;28.60;17.80;;;1.40;99.90;;;;;;5027244;28;20052;-76
2022/12/12 01:05:15;;;;;;;26.40;16.73;;;1.40;99.90;;;;;;5012812;28;20040;-76
2022/12/12 01:07:42;;;;;;;27.37;16.93;;;1.40;99.90;;;;;;5047923;28;20048;-76
2022/12/12 01:10:09;;;;;;;24.13;15.47;;;1.40;99.90;;;;;;5023066;28;20384;-76
2022/12/12 01:12:35;;;;;;;26.07;16.13;;;1.40;99.90;;;;;;5011607;28;20045;-77
2022/12/12 01:15:04;;;;;;;31.23;19.00;;;1.40;99.90;;;;;;5042995;28;20044;-77
2022/12/12 01:17:36;;;;;;;34.27;19.93;;;1.40;99.90;;;;;;5021831;28;20034;-76
2022/12/12 01:20:05;;;;;;;26.20;15.93;;;1.40;99.90;;;;;;5028150;28;20055;-77
2022/12/12 01:22:32;;;;;;;27.10;17.37;;;1.40;99.90;;;;;;5026752;28;20426;-77
2022/12/12 01:24:59;;;;;;;29.23;17.63;;;1.40;99.90;;;;;;5026809;28;20037;-77
2022/12/12 01:27:26;;;;;;;30.03;18.60;;;1.50;99.90;;;;;;5016637;28;20064;-77
2022/12/12 01:29:55;;;;;;;30.87;18.37;;;1.50;99.90;;;;;;5026631;28;20045;-77
2022/12/12 01:32:21;;;;;;;30.33;18.97;;;1.50;99.90;;;;;;5029035;28;20033;-78
2022/12/12 01:34:47;;;;;;;29.00;17.10;;;1.40;99.90;;;;;;5028463;28;20033;-77
2022/12/12 01:37:14;;;;;;;33.90;19.23;;;1.40;99.90;;;;;;5043710;28;20734;-76
2022/12/12 01:39:40;;;;;;;29.17;17.70;;;1.40;99.90;;;;;;5030190;28;20033;-77
2022/12/12 01:42:12;;;;;;;30.57;18.60;;;1.40;99.90;;;;;;5028089;28;20044;-76
2022/12/12 01:44:43;;;;;;;30.73;18.58;;;1.40;99.90;;;;;;5027693;28;20033;-76
2022/12/12 01:47:15;;;;;;;32.80;19.37;;;1.40;99.90;;;;;;5028949;28;20041;-77
2022/12/12 01:50:14;;;;;;;28.70;19.30;;;1.40;99.90;;;;;;5034672;28;20037;-77
2022/12/12 01:52:44;;;;;;;27.47;16.70;;;1.40;99.90;;;;;;5004237;28;21185;-76
2022/12/12 01:55:19;;;;;;;26.73;18.10;;;1.30;99.90;;;;;;5052481;28;20492;-76
2022/12/12 01:57:51;;;;;;;30.23;17.23;;;1.30;99.90;;;;;;5036298;28;20395;-77
2022/12/12 02:00:18;;;;;;;30.52;17.90;;;1.30;99.90;;;;;;5041084;28;20037;-76
2022/12/12 02:02:46;;;;;;;25.70;16.27;;;1.30;99.90;;;;;;5024087;28;20029;-76
2022/12/12 02:05:40;;;;;;;32.70;19.30;;;1.30;99.90;;;;;;5028772;28;20029;-76
2022/12/12 02:08:08;;;;;;;29.37;17.93;;;1.20;99.90;;;;;;5016619;28;20060;-76
2022/12/12 02:10:34;;;;;;;27.63;16.77;;;1.20;99.90;;;;;;5020242;28;20566;-77
2022/12/12 02:13:08;;;;;;;24.77;16.00;;;1.20;99.90;;;;;;5043565;28;20492;-77
2022/12/12 02:15:49;;;;;;;27.60;17.37;;;1.20;99.90;;;;;;5028937;28;20045;-77
2022/12/12 02:21:35;;;;;;;21.93;12.73;;;1.20;99.90;;;;;;5116357;27;20413;-75
2022/12/12 02:24:17;;;;;;;24.37;14.03;;;1.10;99.90;;;;;;5063548;28;20052;-75
2022/12/12 02:26:49;;;;;;;25.83;15.07;;;1.10;99.90;;;;;;5043715;28;20043;-75
2022/12/12 02:29:35;;;;;;;26.88;16.40;;;1.10;99.90;;;;;;5063249;28;20032;-75
2022/12/12 02:32:22;;;;;;;22.40;14.93;;;1.10;99.90;;;;;;5082340;28;20035;-75
2022/12/12 02:35:11;;;;;;;24.07;14.80;;;1.10;99.90;;;;;;5082983;28;20032;-75
2022/12/12 02:37:59;;;;;;;22.83;13.40;;;1.10;99.90;;;;;;5056679;28;20616;-75
2022/12/12 02:40:53;;;;;;;26.13;15.20;;;1.20;99.90;;;;;;5066254;28;20494;-75
2022/12/12 02:43:58;;;;;;;24.50;15.30;;;1.20;99.90;;;;;;5062567;28;20542;-75
2022/12/12 02:46:30;;;;;;;24.23;15.30;;;1.10;99.90;;;;;;5021828;28;20045;-76
2022/12/12 02:49:05;;;;;;;27.05;15.48;;;1.10;99.90;;;;;;5055428;28;20043;-75
2022/12/12 02:51:33;;;;;;;24.90;15.27;;;1.10;99.90;;;;;;5065651;28;20024;-76
2022/12/12 02:54:02;;;;;;;24.77;15.63;;;1.10;99.90;;;;;;5065062;28;20036;-75
2022/12/12 02:57:02;;;;;;;21.37;14.10;;;1.10;99.90;;;;;;5079163;28;20427;-75
2022/12/12 02:59:39;;;;;;;21.10;13.93;;;1.10;99.90;;;;;;5063309;28;20048;-76
2022/12/12 03:02:15;;;;;;;18.53;11.83;;;1.10;99.90;;;;;;5064270;28;20040;-75
2022/12/12 03:08:00;;;;;;;19.10;12.30;;;1.10;99.90;;;;;;5074338;28;20395;-76
2022/12/12 03:10:53;;;;;;;26.13;15.43;;;1.10;99.90;;;;;;5082189;28;20044;-76
2022/12/12 03:13:30;;;;;;;27.70;17.63;;;1.10;99.90;;;;;;5048264;28;20403;-75
2022/12/12 03:16:02;;;;;;;26.23;16.00;;;1.10;99.90;;;;;;5064906;28;20036;-76
2022/12/12 03:18:47;;;;;;;22.80;15.50;;;1.10;99.90;;;;;;5075404;28;20044;-75
2022/12/12 03:21:23;;;;;;;22.33;13.90;;;1.10;99.90;;;;;;5080311;28;20391;-76
2022/12/12 03:23:58;;;;;;;22.27;14.47;;;1.10;99.90;;;;;;5102707;28;20493;-76
2022/12/12 03:26:29;;;;;;;24.20;15.27;;;1.00;99.90;;;;;;5096082;28;20083;-76
2022/12/12 03:29:17;;;;;;;22.77;14.03;;;1.00;99.90;;;;;;5098438;28;20146;-75
2022/12/12 03:31:51;;;;;;;22.67;13.27;;;1.00;99.90;;;;;;5079188;28;20047;-76
2022/12/12 03:34:25;;;;;;;20.37;12.43;;;1.00;99.90;;;;;;5088022;28;20035;-75
2022/12/12 03:37:06;;;;;;;24.50;15.10;;;0.90;99.90;;;;;;5064518;28;20043;-76
2022/12/12 03:39:56;;;;;;;20.70;12.17;;;0.80;99.90;;;;;;5071510;28;20032;-75
2022/12/12 03:42:38;;;;;;;21.67;12.63;;;0.80;99.90;;;;;;5086716;28;20402;-75
2022/12/12 03:45:22;;;;;;;19.85;12.55;;;0.70;99.90;;;;;;5072135;28;20035;-76
2022/12/12 03:47:57;;;;;;;21.20;12.40;;;0.60;99.90;;;;;;5064171;28;20048;-76
2022/12/12 03:50:30;;;;;;;20.37;12.33;;;0.60;99.90;;;;;;5088418;28;20367;-75
2022/12/12 03:53:14;;;;;;;20.90;12.60;;;0.50;99.90;;;;;;5071265;28;20020;-76
2022/12/12 03:55:50;;;;;;;20.90;12.97;;;0.40;99.90;;;;;;5087996;28;20035;-76
2022/12/12 03:58:23;;;;;;;19.90;12.17;;;0.40;99.90;;;;;;5064990;28;20040;-76
2022/12/12 04:00:52;;;;;;;20.13;12.30;;;0.30;99.90;;;;;;5089310;28;20032;-75
2022/12/12 04:03:39;;;;;;;24.50;14.90;;;0.30;99.90;;;;;;5087877;28;20499;-76
2022/12/12 04:06:27;;;;;;;20.83;12.90;;;0.20;99.90;;;;;;5087557;28;20476;-75
2022/12/12 04:15:17;;;;;;;19.57;11.57;;;0.10;99.90;;;;;;5087773;28;20479;-76
2022/12/12 04:17:59;;;;;;;18.47;11.13;;;0.10;99.90;;;;;;5061663;28;20032;-76
2022/12/12 04:23:42;;;;;;;19.43;11.97;;;0.00;99.90;;;;;;5087586;28;20506;-76
2022/12/12 04:26:39;;;;;;;22.93;12.57;;;-0.10;99.90;;;;;;5069722;28;20039;-76
2022/12/12 04:29:08;;;;;;;16.87;9.93;;;-0.20;99.90;;;;;;5053153;28;20028;-75
2022/12/12 04:31:40;;;;;;;17.57;11.53;;;-0.30;99.90;;;;;;5088756;28;20039;-76
2022/12/12 04:34:27;;;;;;;15.60;10.05;;;-0.30;99.90;;;;;;5075691;28;20032;-76
2022/12/12 04:36:54;;;;;;;18.63;10.43;;;-0.30;99.90;;;;;;5083641;28;20039;-75
2022/12/12 04:39:22;;;;;;;15.97;10.00;;;-0.40;99.90;;;;;;5088629;28;20032;-75
2022/12/12 04:41:51;;;;;;;17.07;10.07;;;-0.40;99.90;;;;;;5087960;28;20047;-76
2022/12/12 04:44:21;;;;;;;16.70;10.23;;;-0.50;99.90;;;;;;5070039;28;20431;-76
2022/12/12 04:46:52;;;;;;;16.57;10.23;;;-0.50;99.90;;;;;;5081489;28;20046;-75
2022/12/12 04:49:24;;;;;;;17.57;11.00;;;-0.60;99.90;;;;;;5071089;28;20395;-76
2022/12/12 04:51:57;;;;;;;18.20;11.93;;;-0.60;99.90;;;;;;5087230;28;20040;-76
2022/12/12 04:54:46;;;;;;;16.45;9.70;;;-0.60;99.90;;;;;;5086811;28;20031;-76
2022/12/12 04:57:28;;;;;;;16.43;9.83;;;-0.60;99.90;;;;;;5079803;28;20051;-76
2022/12/12 04:59:55;;;;;;;17.27;9.77;;;-0.70;99.90;;;;;;5069153;28;20044;-76
2022/12/12 05:02:42;;;;;;;16.33;9.80;;;-0.70;99.90;;;;;;5086464;28;20028;-76
2022/12/12 05:05:40;;;;;;;17.30;10.07;;;-0.70;99.90;;;;;;5051283;28;20039;-76
2022/12/12 05:08:15;;;;;;;19.87;11.27;;;-0.80;99.90;;;;;;5078527;28;20044;-76
2022/12/12 05:10:49;;;;;;;18.00;11.90;;;-0.80;99.90;;;;;;5084096;28;20047;-76
2022/12/12 05:13:18;;;;;;;15.73;10.20;;;-0.80;99.90;;;;;;5086637;28;20040;-76
2022/12/12 05:15:47;;;;;;;16.57;10.40;;;-0.80;99.90;;;;;;5069972;28;20497;-76
2022/12/12 05:18:13;;;;;;;16.93;10.07;;;-0.90;99.90;;;;;;5062702;28;20671;-76
2022/12/12 05:20:40;;;;;;;15.20;9.23;;;-0.90;99.90;;;;;;5069860;28;20276;-76
2022/12/12 05:23:06;;;;;;;17.53;9.90;;;-0.90;99.90;;;;;;5085428;28;20039;-75
2022/12/12 05:25:32;;;;;;;14.70;8.90;;;-1.00;99.90;;;;;;5068453;28;20051;-75
2022/12/12 05:27:59;;;;;;;13.27;8.70;;;-1.00;99.90;;;;;;5061942;28;20545;-75
2022/12/12 05:30:26;;;;;;;17.67;9.77;;;-1.00;99.90;;;;;;5085747;28;20036;-76
2022/12/12 05:32:52;;;;;;;20.20;11.90;;;-1.00;99.90;;;;;;5085588;28;20032;-76
2022/12/12 05:35:19;;;;;;;17.53;10.57;;;-1.10;99.90;;;;;;5088008;28;20036;-76
2022/12/12 05:37:45;;;;;;;15.93;10.03;;;-1.10;99.90;;;;;;5062193;28;20055;-76
2022/12/12 05:40:12;;;;;;;18.53;10.70;;;-1.10;99.90;;;;;;5064145;28;20036;-76
2022/12/12 05:42:39;;;;;;;18.30;9.93;;;-1.10;99.90;;;;;;5067958;28;20999;-76
2022/12/12 05:45:07;;;;;;;17.23;10.10;;;-1.20;99.90;;;;;;5067050;28;20024;-76
2022/12/12 05:47:34;;;;;;;18.00;10.37;;;-1.20;99.90;;;;;;5056566;28;20051;-76
2022/12/12 05:50:00;;;;;;;16.03;10.13;;;-1.20;99.90;;;;;;5064900;28;20037;-76
2022/12/12 05:52:27;;;;;;;22.60;13.03;;;-1.20;99.90;;;;;;5066929;28;20028;-76
2022/12/12 05:54:53;;;;;;;18.27;11.43;;;-1.30;99.90;;;;;;5074384;28;20033;-76
2022/12/12 05:57:20;;;;;;;22.63;13.17;;;-1.30;99.90;;;;;;5049174;28;20032;-76
2022/12/12 05:59:46;;;;;;;22.90;13.40;;;-1.30;99.90;;;;;;5065922;28;20375;-76
2022/12/12 06:02:15;;;;;;;22.30;12.80;;;-1.30;99.90;;;;;;5067173;28;20039;-75
2022/12/12 06:04:42;;;;;;;24.07;13.87;;;-1.30;99.90;;;;;;5067287;28;20545;-76
2022/12/12 06:07:08;;;;;;;19.93;12.33;;;-1.30;99.90;;;;;;5058320;28;20032;-76
2022/12/12 06:09:35;;;;;;;22.80;13.50;;;-1.40;99.90;;;;;;5086864;28;20028;-75
2022/12/12 06:12:02;;;;;;;22.43;12.53;;;-1.40;99.90;;;;;;5061345;28;20040;-75
2022/12/12 06:14:28;;;;;;;22.57;12.73;;;-1.40;99.90;;;;;;5085535;28;20032;-75
2022/12/12 06:16:54;;;;;;;21.27;12.20;;;-1.50;99.90;;;;;;5061411;28;20561;-74
2022/12/12 06:19:21;;;;;;;23.00;12.10;;;-1.40;99.90;;;;;;5085888;28;20048;-74
2022/12/12 06:21:47;;;;;;;19.60;11.03;;;-1.50;99.90;;;;;;5068219;28;20036;-74
2022/12/12 06:24:13;;;;;;;18.20;10.90;;;-1.50;99.90;;;;;;5068917;28;20036;-75
2022/12/12 06:26:40;;;;;;;17.07;10.17;;;-1.50;99.90;;;;;;5080683;28;20383;-74
2022/12/12 06:29:06;;;;;;;18.47;10.50;;;-1.50;99.90;;;;;;5064532;28;20506;-74
2022/12/12 06:31:33;;;;;;;19.47;10.57;;;-1.50;99.90;;;;;;5086422;28;20482;-75
2022/12/12 06:33:59;;;;;;;16.80;10.87;;;-1.50;99.90;;;;;;5070642;28;20035;-74
2022/12/12 06:36:26;;;;;;;17.50;10.40;;;-1.60;99.90;;;;;;5067928;28;20047;-74
2022/12/12 06:38:58;;;;;;;17.60;10.37;;;-1.50;99.90;;;;;;5050397;28;20036;-74
2022/12/12 06:41:27;;;;;;;16.85;9.55;;;-1.60;99.90;;;;;;5070111;28;20040;-74
2022/12/12 06:43:54;;;;;;;18.03;9.97;;;-1.60;99.90;;;;;;5082418;28;20051;-74
2022/12/12 06:46:23;;;;;;;18.47;10.60;;;-1.60;99.90;;;;;;5084628;28;20502;-74
2022/12/12 06:48:50;;;;;;;18.67;10.57;;;-1.70;99.90;;;;;;5081207;28;20043;-74
2022/12/12 06:51:20;;;;;;;18.60;10.60;;;-1.60;99.90;;;;;;5085870;28;20044;-74
2022/12/12 06:53:47;;;;;;;16.73;10.70;;;-1.70;99.90;;;;;;5069160;28;20036;-74
2022/12/12 06:56:16;;;;;;;16.77;10.33;;;-1.70;99.90;;;;;;5067893;28;20032;-74
2022/12/12 06:58:43;;;;;;;18.20;10.03;;;-1.70;99.90;;;;;;5080616;28;20050;-74
2022/12/12 07:01:14;;;;;;;19.90;10.73;;;-1.70;99.90;;;;;;5068244;28;20036;-74
2022/12/12 07:03:41;;;;;;;20.10;12.07;;;-1.80;99.90;;;;;;5090063;28;20043;-74
2022/12/12 07:06:07;;;;;;;18.67;10.40;;;-1.80;99.90;;;;;;5088814;28;20701;-74
2022/12/12 07:08:35;;;;;;;19.03;11.97;;;-1.80;99.90;;;;;;5089704;28;20032;-74
2022/12/12 07:11:07;;;;;;;17.73;10.27;;;-1.80;99.90;;;;;;5092645;28;20054;-74
2022/12/12 07:13:34;;;;;;;19.08;10.98;;;-1.90;99.90;;;;;;5076028;28;20031;-74
2022/12/12 07:16:00;;;;;;;24.27;11.97;;;-1.80;99.90;;;;;;5056706;28;20032;-75
2022/12/12 07:18:27;;;;;;;20.50;12.33;;;-1.50;99.90;;;;;;5090172;28;20414;-74
2022/12/12 07:20:54;;;;;;;20.13;11.93;;;-1.30;99.90;;;;;;5075774;28;20309;-74
2022/12/12 07:23:20;;;;;;;20.03;11.37;;;-1.20;99.90;;;;;;5093049;28;20036;-74
2022/12/12 07:25:47;;;;;;;22.00;12.50;;;-1.10;99.90;;;;;;5076396;28;20028;-74
2022/12/12 07:28:14;;;;;;;23.50;11.40;;;-1.10;99.90;;;;;;5092729;28;20040;-74
2022/12/12 07:30:45;;;;;;;19.87;11.40;;;-1.20;99.90;;;;;;5094264;28;20032;-75
2022/12/12 07:33:15;;;;;;;20.50;11.10;;;-1.20;99.90;;;;;;5093581;28;20486;-73
2022/12/12 07:35:42;;;;;;;21.90;10.90;;;-1.30;99.90;;;;;;5076545;28;20032;-74
2022/12/12 07:38:10;;;;;;;17.83;9.47;;;-1.40;99.90;;;;;;5073808;28;20028;-74
2022/12/12 07:40:37;;;;;;;15.63;9.20;;;-1.50;99.90;;;;;;5075862;28;20039;-74
2022/12/12 07:43:03;;;;;;;19.53;11.50;;;-1.70;99.90;;;;;;5065164;28;20036;-74
2022/12/12 07:45:30;;;;;;;16.17;9.00;;;-1.80;99.90;;;;;;5075682;28;20500;-74
2022/12/12 07:47:56;;;;;;;18.97;10.20;;;-1.90;99.90;;;;;;5091083;28;20039;-74
2022/12/12 07:50:23;;;;;;;18.97;10.43;;;-2.00;99.90;;;;;;5092165;28;20032;-74
2022/12/12 07:52:49;;;;;;;22.00;12.90;;;-2.00;99.90;;;;;;5092885;28;20063;-74
2022/12/12 07:55:16;;;;;;;22.63;12.00;;;-2.00;99.90;;;;;;5092409;28;20475;-74
2022/12/12 07:57:42;;;;;;;21.07;11.47;;;-2.00;99.90;;;;;;5091251;28;20040;-74
2022/12/12 08:00:12;;;;;;;22.97;13.57;;;-2.10;99.90;;;;;;5075394;28;20046;-74
2022/12/12 08:02:38;;;;;;;18.40;11.07;;;-2.10;99.90;;;;;;5091841;28;20398;-74
2022/12/12 08:05:05;;;;;;;19.80;11.23;;;-2.10;99.90;;;;;;5075146;28;20032;-74
2022/12/12 08:07:31;;;;;;;23.73;13.10;;;-2.10;99.90;;;;;;5073323;28;20040;-75
2022/12/12 08:09:58;;;;;;;18.80;9.73;;;-2.10;99.90;;;;;;5074902;28;20032;-74
2022/12/12 08:12:27;;;;;;;18.83;9.53;;;-2.00;99.90;;;;;;5074718;28;20395;-74
2022/12/12 08:14:53;;;;;;;22.00;11.43;;;-1.90;99.90;;;;;;5093060;28;20032;-74
2022/12/12 08:17:19;;;;;;;29.37;14.57;;;-1.80;99.90;;;;;;5091953;28;20036;-74
2022/12/12 08:19:46;;;;;;;23.70;13.07;;;-1.70;99.90;;;;;;5091740;28;20407;-74
2022/12/12 08:22:12;;;;;;;26.93;14.83;;;-1.60;99.90;;;;;;5092041;28;20040;-74
2022/12/12 08:24:39;;;;;;;25.70;14.63;;;-1.60;99.90;;;;;;5074891;28;20032;-74
2022/12/12 08:27:05;;;;;;;26.90;14.23;;;-1.60;99.90;;;;;;5073364;28;20047;-74
2022/12/12 08:29:32;;;;;;;24.30;13.53;;;-1.50;99.90;;;;;;5091401;28;20040;-74
2022/12/12 08:31:58;;;;;;;30.17;15.27;;;-1.50;99.90;;;;;;5075057;28;20503;-74
2022/12/12 08:34:25;;;;;;;25.93;13.60;;;-1.50;99.90;;;;;;5074777;28;20407;-74
2022/12/12 08:36:53;;;;;;;24.70;14.87;;;-1.50;99.90;;;;;;5073888;28;20071;-74
2022/12/12 08:39:20;;;;;;;30.87;16.10;;;-1.50;99.90;;;;;;5091616;28;20035;-74
2022/12/12 08:41:47;;;;;;;28.07;16.23;;;-1.40;99.90;;;;;;5092777;28;20417;-74
2022/12/12 08:44:16;;;;;;;30.00;15.87;;;-1.40;99.90;;;;;;5091292;28;20482;-74
2022/12/12 08:46:43;;;;;;;28.00;15.60;;;-1.30;99.90;;;;;;5107008;28;20028;-74
2022/12/12 08:49:10;;;;;;;25.57;14.50;;;-1.30;99.90;;;;;;5073877;28;20028;-74
2022/12/12 08:51:38;;;;;;;30.40;15.70;;;-1.30;99.90;;;;;;5074194;28;20039;-74
2022/12/12 08:54:04;;;;;;;27.13;14.87;;;-1.30;99.90;;;;;;5074429;28;20032;-74
2022/12/12 08:56:30;;;;;;;26.50;13.73;;;-1.30;99.90;;;;;;5088106;28;20693;-73
2022/12/12 08:58:58;;;;;;;28.97;14.40;;;-1.20;99.90;;;;;;5085304;28;20036;-74
2022/12/12 09:01:26;;;;;;;23.43;13.93;;;-1.20;99.90;;;;;;5069404;28;20039;-74
2022/12/12 09:03:54;;;;;;;28.80;14.97;;;-1.10;99.90;;;;;;5085314;28;20502;-74
2022/12/12 09:06:22;;;;;;;29.03;15.40;;;-1.10;99.90;;;;;;5084349;28;20036;-74
2022/12/12 09:08:49;;;;;;;28.33;14.23;;;-1.10;99.90;;;;;;5056809;28;20032;-74
2022/12/12 09:11:16;;;;;;;29.33;15.33;;;-1.10;99.90;;;;;;5069579;28;20032;-74
2022/12/12 09:13:42;;;;;;;35.10;18.37;;;-1.00;99.90;;;;;;5103757;28;20043;-74
2022/12/12 09:16:10;;;;;;;35.17;17.93;;;-1.00;99.90;;;;;;5067418;28;20051;-73
2022/12/12 09:18:38;;;;;;;31.33;15.73;;;-0.90;99.90;;;;;;5047794;28;20047;-72
2022/12/12 09:21:05;;;;;;;29.97;16.43;;;-0.90;99.90;;;;;;5079682;28;20044;-73
2022/12/12 09:23:32;;;;;;;30.30;17.47;;;-0.90;99.90;;;;;;5085530;28;20044;-74
2022/12/12 09:26:04;;;;;;;25.17;14.00;;;-0.80;99.90;;;;;;5069139;28;20039;-73
2022/12/12 09:28:30;;;;;;;38.55;19.73;;;-0.80;99.90;;;;;;5046519;28;20110;-75
2022/12/12 09:30:57;;;;;;;43.50;21.33;;;-0.80;99.90;;;;;;5068849;28;20025;-75
2022/12/12 09:33:23;;;;;;;36.43;19.53;;;-0.70;99.90;;;;;;5079312;28;20044;-74
2022/12/12 09:35:58;;;;;;;34.27;18.60;;;-0.60;99.90;;;;;;5067791;28;20067;-74
2022/12/12 09:38:25;;;;;;;38.40;20.07;;;-0.60;99.90;;;;;;5077784;28;20036;-74
2022/12/12 09:41:02;;;;;;;38.77;20.00;;;-0.50;99.90;;;;;;5084637;28;20050;-74
2022/12/12 09:43:50;;;;;;;31.13;15.53;;;-0.40;99.90;;;;;;5067076;28;20703;-74
2022/12/12 09:46:45;;;;;;;35.00;19.97;;;-0.30;99.90;;;;;;5074673;28;20044;-74
2022/12/12 09:49:30;;;;;;;32.80;17.60;;;-0.10;99.90;;;;;;5045220;28;20871;-74
2022/12/12 09:51:59;;;;;;;28.70;17.13;;;0.10;99.90;;;;;;5081902;28;20022;-74
2022/12/12 09:54:27;;;;;;;31.53;17.67;;;0.40;99.90;;;;;;5084831;28;20043;-74
2022/12/12 09:57:12;;;;;;;30.70;16.00;;;0.60;99.90;;;;;;5060433;28;20044;-74
2022/12/12 09:59:41;;;;;;;26.23;15.43;;;0.90;99.90;;;;;;5058212;28;20048;-74
2022/12/12 10:02:26;;;;;;;27.73;16.40;;;1.20;99.90;;;;;;5067620;28;20643;-74
2022/12/12 10:05:28;;;;;;;28.60;17.10;;;1.50;99.90;;;;;;5067900;28;20051;-74
2022/12/12 10:08:12;;;;;;;30.48;17.05;;;1.80;99.90;;;;;;5076648;28;20043;-74
2022/12/12 10:10:45;;;;;;;26.15;16.27;;;2.10;99.90;;;;;;5083832;28;20058;-74
2022/12/12 10:13:25;;;;;;;28.27;17.85;;;2.40;99.90;;;;;;5083211;28;20462;-74
2022/12/12 10:16:14;;;;;;;29.50;16.63;;;2.70;99.90;;;;;;5083703;28;20102;-74
2022/12/12 10:18:46;;;;;;;27.77;17.30;;;2.90;99.90;;;;;;5067483;28;20048;-74
2022/12/12 10:21:19;;;;;;;29.25;18.23;;;3.00;99.90;;;;;;5084482;28;20056;-75
2022/12/12 10:23:49;;;;;;;;;;;3.00;99.90;;;;;;5067501;28;20035;-74
2022/12/12 10:26:17;;;;;;;41.03;25.27;;;2.80;99.90;;;;;;5082435;28;19915;-75
2022/12/12 10:28:45;;;;;;;35.67;23.90;;;2.60;99.90;;;;;;5062381;28;20039;-75
2022/12/12 10:31:23;;;;;;;35.33;21.08;;;2.40;99.90;;;;;;5067199;28;20032;-74
2022/12/12 10:33:58;;;;;;;38.05;22.10;;;2.20;99.90;;;;;;5097630;28;20031;-74
2022/12/12 10:36:46;;;;;;;30.77;18.77;;;2.00;99.90;;;;;;5091841;28;20040;-74
2022/12/12 10:39:21;;;;;;;31.67;19.90;;;1.80;99.90;;;;;;5085099;28;20478;-74
2022/12/12 10:42:18;;;;;;;28.23;16.70;;;1.60;99.90;;;;;;5066128;28;20047;-74
2022/12/12 10:44:58;;;;;;;33.43;18.53;;;1.40;99.90;;;;;;5087772;28;20540;-75
2022/12/12 10:47:25;;;;;;;30.77;16.93;;;1.30;99.90;;;;;;5063612;28;20024;-75
2022/12/12 10:50:01;;;;;;;34.53;18.03;;;1.20;99.90;;;;;;5088079;28;20032;-74
2022/12/12 10:52:27;;;;;;;34.73;19.50;;;1.10;99.90;;;;;;5082932;28;20044;-73
2022/12/12 10:54:57;;;;;;;31.30;17.33;;;1.10;99.90;;;;;;5081440;28;20421;-74
2022/12/12 10:57:33;;;;;;;35.33;21.03;;;1.00;99.90;;;;;;5078598;28;20352;-74
2022/12/12 11:00:14;;;;;;;34.97;19.67;;;0.90;99.90;;;;;;5068488;28;20035;-75
2022/12/12 11:02:42;;;;;;;32.40;17.70;;;0.90;99.90;;;;;;5067190;28;20040;-75
2022/12/12 11:05:15;;;;;;;33.27;18.73;;;0.80;99.90;;;;;;5067970;28;20035;-75
2022/12/12 11:07:47;;;;;;;34.67;19.65;;;0.80;99.90;;;;;;5061994;28;20471;-75
2022/12/12 11:10:32;;;;;;;31.90;18.60;;;0.80;99.90;;;;;;5082744;28;20029;-75
2022/12/12 11:13:07;;;;;;;37.83;19.73;;;0.70;99.90;;;;;;5087303;28;20482;-75
2022/12/12 11:15:38;;;;;;;35.53;20.63;;;0.70;99.90;;;;;;5069914;28;20032;-74
2022/12/12 11:18:12;;;;;;;166.80;77.97;;;0.70;99.90;;;;;;5062536;28;20044;-74
2022/12/12 11:20:48;;;;;;;56.73;31.90;;;0.70;99.90;;;;;;5069642;28;20233;-74
2022/12/12 11:23:22;;;;;;;48.80;24.93;;;0.70;99.90;;;;;;5083917;28;20060;-76
2022/12/12 11:26:03;;;;;;;53.60;28.20;;;0.60;99.90;;;;;;5070816;28;20040;-76
2022/12/12 11:28:35;;;;;;;42.07;23.67;;;0.60;99.90;;;;;;5063697;28;20039;-76
2022/12/12 11:31:08;;;;;;;48.65;25.00;;;0.60;99.90;;;;;;5065763;28;20043;-75
2022/12/12 11:33:57;;;;;;;42.43;23.00;;;0.60;99.90;;;;;;5069043;28;20051;-75
2022/12/12 11:36:37;;;;;;;31.87;18.50;;;0.60;99.90;;;;;;5099624;28;20529;-74
2022/12/12 11:39:27;;;;;;;36.17;19.00;;;0.60;99.90;;;;;;5067568;28;20043;-75
2022/12/12 11:41:56;;;;;;;29.30;16.97;;;0.60;99.90;;;;;;5064410;28;20051;-75
2022/12/12 11:44:26;;;;;;;28.80;15.80;;;0.60;99.90;;;;;;5068519;28;20056;-75
2022/12/12 11:46:52;;;;;;;33.47;17.17;;;0.60;99.90;;;;;;5078262;28;20124;-74
2022/12/12 11:49:19;;;;;;;29.50;16.93;;;0.60;99.90;;;;;;5079383;28;20487;-75
2022/12/12 11:51:45;;;;;;;29.80;17.03;;;0.60;99.90;;;;;;5086426;28;20055;-74
2022/12/12 11:54:22;;;;;;;36.80;19.50;;;0.60;99.90;;;;;;5070280;28;20040;-75
2022/12/12 11:57:41;;;;;;;34.87;19.30;;;0.60;99.90;;;;;;5082434;28;20062;-75
2022/12/12 12:00:16;;;;;;;36.73;18.57;;;0.60;99.90;;;;;;5039373;28;20055;-75
2022/12/12 12:03:04;;;;;;;32.87;17.43;;;0.60;99.90;;;;;;5083670;28;20044;-75
2022/12/12 12:05:31;;;;;;;30.23;15.17;;;0.60;99.90;;;;;;5070216;28;20036;-75
2022/12/12 12:08:00;;;;;;;28.47;15.97;;;0.60;99.90;;;;;;5060340;28;20392;-74
2022/12/12 12:10:43;;;;;;;30.80;17.30;;;0.60;99.90;;;;;;5085123;28;20649;-74
2022/12/12 12:13:25;;;;;;;35.80;18.27;;;0.60;99.90;;;;;;5078194;28;20364;-75
2022/12/12 12:16:00;;;;;;;33.25;18.80;;;0.60;99.90;;;;;;5080965;28;20035;-74
2022/12/12 12:18:55;;;;;;;29.73;15.63;;;0.60;99.90;;;;;;5078455;28;20032;-74
2022/12/12 12:21:27;;;;;;;31.33;18.23;;;0.60;99.90;;;;;;5077650;28;20051;-75
2022/12/12 12:24:18;;;;;;;29.83;17.25;;;0.60;99.90;;;;;;5085780;28;20486;-75
2022/12/12 12:27:11;;;;;;;26.73;15.13;;;0.70;99.90;;;;;;5080679;28;20059;-75
2022/12/12 12:30:26;;;;;;;23.15;12.98;;;0.60;99.90;;;;;;5086645;28;20537;-75
2022/12/12 12:33:22;;;;;;;29.30;13.97;;;0.60;99.90;;;;;;5100109;27;20039;-75
2022/12/12 12:36:12;;;;;;;27.47;14.13;;;0.60;99.90;;;;;;5069892;28;20480;-75
2022/12/12 12:38:48;;;;;;;23.23;12.20;;;0.60;99.90;;;;;;5081504;28;20027;-75
2022/12/12 12:41:49;;;;;;;29.67;15.73;;;0.60;99.90;;;;;;5069385;28;20035;-75
2022/12/12 12:44:34;;;;;;;31.23;14.33;;;0.60;99.90;;;;;;5065714;28;20060;-75
2022/12/12 12:47:41;;;;;;;28.70;14.87;;;0.60;99.90;;;;;;5062140;28;20083;-75
2022/12/12 12:50:29;;;;;;;24.30;13.13;;;0.60;99.90;;;;;;5018942;28;20386;-75
2022/12/12 12:53:33;;;;;;;25.30;13.23;;;0.60;99.90;;;;;;5098324;27;20418;-76
2022/12/12 12:56:07;;;;;;;24.17;12.13;;;0.60;99.90;;;;;;5085353;28;20036;-76
2022/12/12 12:58:41;;;;;;;26.03;13.80;;;0.50;99.90;;;;;;5052684;28;20039;-75
2022/12/12 13:01:17;;;;;;;25.30;12.20;;;0.60;99.90;;;;;;5069054;28;20051;-75
2022/12/12 13:04:01;;;;;;;22.57;12.03;;;0.60;99.90;;;;;;5068364;28;20047;-75
2022/12/12 13:06:43;;;;;;;22.27;12.40;;;0.60;99.90;;;;;;5082760;28;20036;-75
2022/12/12 13:09:36;;;;;;;24.50;12.53;;;0.60;99.90;;;;;;5084977;28;20399;-75
2022/12/12 13:12:31;;;;;;;23.70;13.40;;;0.60;99.90;;;;;;5067380;28;20048;-75
2022/12/12 13:15:06;;;;;;;27.93;16.33;;;0.60;99.90;;;;;;5085980;28;20904;-76
2022/12/12 13:18:00;;;;;;;27.10;14.87;;;0.60;99.90;;;;;;5078308;28;20059;-75
2022/12/12 13:20:28;;;;;;;25.93;13.20;;;0.60;99.90;;;;;;5085078;28;20410;-75